Time;durP1;ratioP1;P1;durP2;ratioP2;P2;SDS_P1;SDS_P2;PMS_P1;PMS_P2;Temp;Humidity;BMP_temperature;BMP_pressure;BME280_temperature;BME280_humidity;BME280_pressure;Samples;Min_cycle;Max_cycle;Signal;HPM_P1;HPM_P2
2022/12/24 00:00:32;;;;;;;76.27;9.37;;;11.40;99.90;;;;;;5052625;28;20172;-88
2022/12/24 00:03:01;;;;;;;74.80;8.85;;;11.50;99.90;;;;;;5053766;28;20203;-87
2022/12/24 00:05:27;;;;;;;78.93;8.05;;;11.40;99.90;;;;;;5053894;28;20176;-88
2022/12/24 00:07:55;;;;;;;80.47;9.80;;;11.40;99.90;;;;;;5052499;28;20169;-88
2022/12/24 00:10:26;;;;;;;76.35;8.55;;;11.40;99.90;;;;;;5053599;28;20172;-87
2022/12/24 00:12:55;;;;;;;81.18;10.05;;;11.40;99.90;;;;;;5052388;28;20270;-87
2022/12/24 00:15:21;;;;;;;92.18;10.25;;;11.40;99.90;;;;;;5053880;28;20188;-87
2022/12/24 00:17:46;;;;;;;76.93;8.10;;;11.40;99.90;;;;;;5052571;28;20203;-87
2022/12/24 00:20:12;;;;;;;75.57;10.07;;;11.30;99.90;;;;;;5053555;28;20403;-87
2022/12/24 00:22:38;;;;;;;79.70;9.13;;;11.30;99.90;;;;;;5052705;28;20164;-87
2022/12/24 00:25:04;;;;;;;76.63;9.13;;;11.30;99.90;;;;;;5053495;28;20192;-87
2022/12/24 00:27:30;;;;;;;75.47;8.00;;;11.30;99.90;;;;;;5053060;28;20196;-87
2022/12/24 00:29:55;;;;;;;80.47;10.67;;;11.30;99.90;;;;;;5053399;28;20192;-87
2022/12/24 00:32:21;;;;;;;83.67;10.63;;;11.30;99.90;;;;;;5053156;28;20533;-87
2022/12/24 00:34:47;;;;;;;79.07;8.70;;;11.30;99.90;;;;;;5053384;28;20168;-87
2022/12/24 00:37:12;;;;;;;94.00;11.90;;;11.30;99.90;;;;;;5052392;28;20266;-87
2022/12/24 00:39:38;;;;;;;75.47;10.83;;;11.30;99.90;;;;;;5053240;28;20222;-87
2022/12/24 00:42:04;;;;;;;75.67;10.53;;;11.30;99.90;;;;;;5053347;28;20181;-87
2022/12/24 00:44:29;;;;;;;82.67;11.13;;;11.40;99.90;;;;;;5052185;28;20168;-87
2022/12/24 00:46:55;;;;;;;86.10;9.80;;;11.40;99.90;;;;;;5053335;28;20161;-87
2022/12/24 00:49:21;;;;;;;85.80;12.17;;;11.40;99.90;;;;;;5053632;28;20196;-87
2022/12/24 00:51:47;;;;;;;80.03;12.30;;;11.40;99.90;;;;;;5053255;28;20195;-87
2022/12/24 00:54:13;;;;;;;80.63;10.30;;;11.40;99.90;;;;;;5052095;28;20407;-87
2022/12/24 00:56:39;;;;;;;75.07;11.15;;;11.40;99.90;;;;;;5053375;28;20219;-87
2022/12/24 00:59:05;;;;;;;79.20;11.33;;;11.40;99.90;;;;;;5053266;28;20514;-87
2022/12/24 01:01:30;;;;;;;78.83;13.13;;;11.40;99.90;;;;;;5051623;28;20302;-87
2022/12/24 01:05:09;;;;;;;78.33;13.70;;;11.40;99.90;;;;;;5052940;28;20183;-88
2022/12/24 01:06:42;;;;;;;79.00;12.85;;;11.30;99.90;;;;;;5053007;28;20176;-88
2022/12/24 01:09:08;;;;;;;76.83;11.67;;;11.40;99.90;;;;;;5051767;28;20165;-87
2022/12/24 01:11:33;;;;;;;78.37;10.40;;;11.40;99.90;;;;;;5053093;28;20484;-88
2022/12/24 01:14:02;;;;;;;78.80;12.00;;;11.40;99.90;;;;;;5052887;28;20730;-87
2022/12/24 01:16:28;;;;;;;77.38;9.82;;;11.50;99.90;;;;;;5051539;28;20521;-87
2022/12/24 01:18:54;;;;;;;81.53;11.27;;;11.50;99.90;;;;;;5052977;28;20186;-87
2022/12/24 01:21:19;;;;;;;79.03;12.37;;;11.40;99.90;;;;;;5053391;28;20187;-88
2022/12/24 01:23:48;;;;;;;76.87;14.77;;;11.40;99.90;;;;;;5052876;28;20251;-87
2022/12/24 01:26:13;;;;;;;85.97;10.75;;;11.50;99.90;;;;;;5053275;28;20169;-87
2022/12/24 01:28:42;;;;;;;86.17;9.87;;;11.40;99.90;;;;;;5052033;28;20165;-87
2022/12/24 01:31:16;;;;;;;75.97;11.30;;;11.50;99.90;;;;;;5052690;28;20268;-88
2022/12/24 01:33:42;;;;;;;80.72;11.65;;;11.40;99.90;;;;;;5053256;28;20181;-87
2022/12/24 01:36:08;;;;;;;86.03;13.10;;;11.40;99.90;;;;;;5051779;28;20184;-87
2022/12/24 01:38:37;;;;;;;79.68;10.77;;;11.40;99.90;;;;;;5052420;28;20169;-87
2022/12/24 01:43:47;;;;;;;75.30;9.48;;;11.40;99.90;;;;;;5057069;28;20187;-87
2022/12/24 01:46:26;;;;;;;78.53;9.70;;;11.30;99.90;;;;;;5055317;28;20601;-88
2022/12/24 01:49:03;;;;;;;83.85;12.25;;;11.30;99.90;;;;;;5057277;28;20675;-88
2022/12/24 01:52:10;;;;;;;96.13;13.20;;;11.30;99.90;;;;;;5055097;28;20219;-88
2022/12/24 01:54:50;;;;;;;83.72;12.98;;;11.30;99.90;;;;;;5054272;28;20184;-87
2022/12/24 01:57:41;;;;;;;83.43;9.90;;;11.20;99.90;;;;;;5054967;28;20588;-87
2022/12/24 02:00:13;;;;;;;73.55;10.90;;;11.20;99.90;;;;;;5056019;28;20146;-87
2022/12/24 02:02:43;;;;;;;77.80;10.85;;;11.20;99.90;;;;;;5056039;28;20164;-87
2022/12/24 02:05:15;;;;;;;79.18;13.35;;;11.10;99.90;;;;;;5056117;28;20195;-87
2022/12/24 02:07:42;;;;;;;89.07;11.00;;;11.10;99.90;;;;;;5055033;28;20521;-87
2022/12/24 02:10:10;;;;;;;77.57;9.40;;;11.10;99.90;;;;;;5054521;28;20171;-88
2022/12/24 02:12:37;;;;;;;81.13;10.15;;;11.10;99.90;;;;;;5054448;28;20246;-87
2022/12/24 02:15:05;;;;;;;79.75;10.93;;;11.10;99.90;;;;;;5054433;28;20160;-87
2022/12/24 02:17:37;;;;;;;76.90;11.85;;;11.10;99.90;;;;;;5054522;28;20543;-87
2022/12/24 02:20:12;;;;;;;77.28;9.27;;;11.00;99.90;;;;;;5055730;28;20246;-87
2022/12/24 02:23:09;;;;;;;82.68;11.30;;;11.00;99.90;;;;;;5054799;28;20217;-87
2022/12/24 02:25:47;;;;;;;89.20;13.40;;;11.00;99.90;;;;;;5054274;28;20279;-87
2022/12/24 02:28:15;;;;;;;89.30;11.93;;;11.00;99.90;;;;;;5054342;28;20168;-87
2022/12/24 02:30:43;;;;;;;93.07;11.95;;;11.00;99.90;;;;;;5055246;28;20660;-87
2022/12/24 02:33:24;;;;;;;74.55;11.45;;;10.90;99.90;;;;;;5054028;28;20196;-87
2022/12/24 02:36:14;;;;;;;81.50;12.95;;;10.90;99.90;;;;;;5055979;28;20179;-87
2022/12/24 02:38:48;;;;;;;82.47;12.25;;;10.90;99.90;;;;;;5053968;28;20195;-87
2022/12/24 02:41:25;;;;;;;83.57;14.90;;;10.90;99.90;;;;;;5055387;28;20730;-87
2022/12/24 02:43:53;;;;;;;86.95;14.50;;;10.80;99.90;;;;;;5054025;28;20211;-87
2022/12/24 02:46:24;;;;;;;86.85;13.10;;;10.90;99.90;;;;;;5053904;28;20172;-87
2022/12/24 02:48:51;;;;;;;82.63;15.07;;;10.90;99.90;;;;;;5055482;28;20163;-87
2022/12/24 02:51:23;;;;;;;84.80;12.15;;;10.90;99.90;;;;;;5053156;28;20280;-87
2022/12/24 02:53:48;;;;;;;80.15;12.30;;;11.00;99.90;;;;;;5055065;28;20525;-87
2022/12/24 02:56:40;;;;;;;85.90;14.30;;;11.00;99.90;;;;;;5053856;28;20164;-87
2022/12/24 02:59:30;;;;;;;80.40;12.07;;;11.00;99.90;;;;;;5055416;28;20210;-87
2022/12/24 03:02:02;;;;;;;77.90;11.60;;;11.00;99.90;;;;;;5054989;28;20247;-87
2022/12/24 03:04:39;;;;;;;78.38;10.30;;;11.00;99.90;;;;;;5053535;28;20172;-88
2022/12/24 03:07:23;;;;;;;73.93;13.00;;;11.00;99.90;;;;;;5053929;28;20163;-86
2022/12/24 03:10:17;;;;;;;72.10;8.20;;;11.10;99.90;;;;;;5054184;28;20222;-87
2022/12/24 03:12:47;;;;;;;82.97;16.20;;;11.10;99.90;;;;;;5054813;28;20190;-87
2022/12/24 03:15:16;;;;;;;75.70;10.60;;;11.10;99.90;;;;;;5054862;28;20152;-88
2022/12/24 03:17:46;;;;;;;75.32;10.10;;;11.10;99.90;;;;;;5053331;28;20525;-87
2022/12/24 03:20:17;;;;;;;75.07;8.50;;;11.10;99.90;;;;;;5053154;28;20164;-87
2022/12/24 03:22:44;;;;;;;74.85;9.30;;;11.10;99.90;;;;;;5054563;28;20161;-87
2022/12/24 03:25:09;;;;;;;72.53;11.18;;;11.10;99.90;;;;;;5053494;28;20601;-87
2022/12/24 03:27:37;;;;;;;74.93;9.47;;;11.10;99.90;;;;;;5055068;28;20192;-86
2022/12/24 03:30:04;;;;;;;72.47;7.97;;;11.10;99.90;;;;;;5053189;28;20169;-87
2022/12/24 03:32:31;;;;;;;77.75;9.82;;;11.00;99.90;;;;;;5055043;28;20192;-86
2022/12/24 03:34:57;;;;;;;74.03;8.48;;;11.00;99.90;;;;;;5053239;28;20667;-88
2022/12/24 03:37:24;;;;;;;75.83;9.07;;;11.00;99.90;;;;;;5053544;28;20185;-87
2022/12/24 03:39:49;;;;;;;72.50;11.15;;;11.00;99.90;;;;;;5052781;28;20465;-87
2022/12/24 03:42:15;;;;;;;76.73;10.27;;;11.00;99.90;;;;;;5052835;28;20278;-88
2022/12/24 03:44:41;;;;;;;69.93;8.30;;;10.90;99.90;;;;;;5052991;28;20540;-87
2022/12/24 03:47:10;;;;;;;67.50;8.80;;;10.90;99.90;;;;;;5054269;28;20176;-87
2022/12/24 03:49:35;;;;;;;76.25;8.18;;;10.80;99.90;;;;;;5054206;28;20629;-87
2022/12/24 03:52:01;;;;;;;72.57;8.00;;;10.80;99.90;;;;;;5052504;28;20219;-87
2022/12/24 03:54:27;;;;;;;70.40;8.10;;;10.80;99.90;;;;;;5053789;28;20231;-88
2022/12/24 03:56:55;;;;;;;72.47;7.77;;;10.80;99.90;;;;;;5052488;28;20540;-87
2022/12/24 03:59:24;;;;;;;70.65;6.30;;;10.70;99.90;;;;;;5052388;28;20536;-88
2022/12/24 04:01:50;;;;;;;67.15;5.45;;;10.70;99.90;;;;;;5051995;28;20243;-88
2022/12/24 04:04:15;;;;;;;69.97;5.53;;;10.60;99.90;;;;;;5052081;28;20176;-88
2022/12/24 04:06:41;;;;;;;72.10;5.60;;;10.70;99.90;;;;;;5054786;28;20628;-88
2022/12/24 04:09:07;;;;;;;67.57;5.67;;;10.60;99.90;;;;;;5052858;28;20628;-87
2022/12/24 04:11:35;;;;;;;70.03;4.93;;;10.50;99.90;;;;;;5053589;28;20685;-88
2022/12/24 04:14:00;;;;;;;68.38;4.80;;;10.50;99.90;;;;;;5053347;28;20247;-88
2022/12/24 04:16:29;;;;;;;70.93;5.20;;;10.40;99.90;;;;;;5053757;28;20164;-89
2022/12/24 04:18:55;;;;;;;66.97;4.60;;;10.40;99.90;;;;;;5053504;28;20168;-88
2022/12/24 04:21:20;;;;;;;68.93;4.70;;;10.40;99.90;;;;;;5053353;28;20176;-88
2022/12/24 04:23:47;;;;;;;69.10;4.40;;;10.40;99.90;;;;;;5052391;28;20176;-88
2022/12/24 04:26:13;;;;;;;70.38;4.30;;;10.40;99.90;;;;;;5051990;28;20164;-88
2022/12/24 04:28:40;;;;;;;71.80;5.15;;;10.40;99.90;;;;;;5053233;28;20165;-87
2022/12/24 04:31:12;;;;;;;71.50;4.35;;;10.30;99.90;;;;;;5052634;28;20773;-88
2022/12/24 04:33:38;;;;;;;66.75;4.00;;;10.30;99.90;;;;;;5053180;28;20268;-87
2022/12/24 04:36:06;;;;;;;68.30;4.57;;;10.30;99.90;;;;;;5053140;28;20274;-88
2022/12/24 04:38:34;;;;;;;65.03;3.60;;;10.30;99.90;;;;;;5053461;28;20210;-88
2022/12/24 04:41:07;;;;;;;67.43;4.18;;;10.30;99.90;;;;;;5051773;28;20181;-88
2022/12/24 04:43:33;;;;;;;66.43;3.65;;;10.20;99.90;;;;;;5052021;28;20164;-88
2022/12/24 04:46:22;;;;;;;68.27;4.20;;;10.20;99.90;;;;;;5053090;28;20171;-88
2022/12/24 04:48:49;;;;;;;69.07;4.45;;;10.20;99.90;;;;;;5053544;28;20387;-88
2022/12/24 04:51:16;;;;;;;70.38;4.43;;;10.20;99.90;;;;;;5051711;28;20188;-88
2022/12/24 04:53:42;;;;;;;73.47;4.65;;;10.10;99.90;;;;;;5051590;28;20287;-88
2022/12/24 04:56:16;;;;;;;68.78;3.97;;;10.10;99.90;;;;;;5051669;28;20168;-88
2022/12/24 04:58:42;;;;;;;68.38;3.70;;;10.00;99.90;;;;;;5051770;28;20167;-88
2022/12/24 05:01:12;;;;;;;66.60;4.10;;;10.00;99.90;;;;;;5053124;28;20187;-88
2022/12/24 05:03:38;;;;;;;73.05;4.22;;;10.10;99.90;;;;;;5051657;28;20486;-88
2022/12/24 05:06:10;;;;;;;65.65;3.35;;;10.00;99.90;;;;;;5053127;28;20175;-88
2022/12/24 05:08:38;;;;;;;67.82;3.78;;;9.90;99.90;;;;;;5051584;28;20231;-88
2022/12/24 05:11:04;;;;;;;68.43;4.40;;;9.90;99.90;;;;;;5051506;28;20192;-88
2022/12/24 05:13:33;;;;;;;67.75;3.42;;;9.90;99.90;;;;;;5051717;28;20220;-88
2022/12/24 05:16:03;;;;;;;66.68;3.40;;;9.90;99.90;;;;;;5056705;28;20215;-88
2022/12/24 05:18:29;;;;;;;67.00;3.75;;;9.80;99.90;;;;;;5055448;28;20234;-88
2022/12/24 05:20:55;;;;;;;67.83;4.17;;;9.70;99.90;;;;;;5056624;28;20660;-88
2022/12/24 05:26:20;;;;;;;71.28;3.97;;;9.70;99.90;;;;;;5057219;28;20393;-88
2022/12/24 05:28:57;;;;;;;68.65;3.60;;;9.70;99.90;;;;;;5056647;28;20157;-88
2022/12/24 05:31:25;;;;;;;66.10;4.10;;;9.70;99.90;;;;;;5055158;28;20239;-88
2022/12/24 05:33:50;;;;;;;69.70;4.50;;;9.80;99.90;;;;;;5055128;28;20192;-88
2022/12/24 05:36:16;;;;;;;68.93;4.50;;;9.70;99.90;;;;;;5056316;28;20184;-88
2022/12/24 05:38:42;;;;;;;70.00;5.07;;;9.90;99.90;;;;;;5056376;28;20540;-88
2022/12/24 05:41:08;;;;;;;71.70;5.37;;;9.90;99.90;;;;;;5055117;28;20651;-88
2022/12/24 05:43:35;;;;;;;70.25;5.47;;;9.90;99.90;;;;;;5055170;28;20200;-88
2022/12/24 05:46:02;;;;;;;68.10;4.85;;;10.00;99.90;;;;;;5056158;28;20171;-88
2022/12/24 05:48:28;;;;;;;68.28;4.20;;;9.90;99.90;;;;;;5056112;28;20164;-88
2022/12/24 05:50:54;;;;;;;70.60;4.60;;;9.90;99.90;;;;;;5054798;28;20656;-88
2022/12/24 05:53:21;;;;;;;73.70;4.93;;;9.90;99.90;;;;;;5054670;28;20189;-88
2022/12/24 05:55:47;;;;;;;78.85;4.70;;;9.90;99.90;;;;;;5054685;28;20414;-88
2022/12/24 05:58:13;;;;;;;77.22;5.40;;;9.90;99.90;;;;;;5055977;28;20160;-88
2022/12/24 06:00:38;;;;;;;73.65;5.15;;;9.80;99.90;;;;;;5055854;28;20184;-88
2022/12/24 06:03:04;;;;;;;74.30;5.47;;;9.90;99.90;;;;;;5054911;28;20176;-88
2022/12/24 06:05:30;;;;;;;73.93;5.80;;;9.90;99.90;;;;;;5055941;28;20169;-88
2022/12/24 06:07:55;;;;;;;70.83;5.43;;;9.90;99.90;;;;;;5056296;28;20168;-88
2022/12/24 06:10:21;;;;;;;75.67;6.80;;;9.90;99.90;;;;;;5054697;28;20179;-88
2022/12/24 06:12:47;;;;;;;82.00;6.13;;;10.00;99.90;;;;;;5054694;28;20188;-88
2022/12/24 06:15:13;;;;;;;75.50;6.97;;;10.00;99.90;;;;;;5055968;28;20192;-88
2022/12/24 06:17:39;;;;;;;78.10;6.00;;;9.90;99.90;;;;;;5054663;28;20165;-88
2022/12/24 06:20:05;;;;;;;69.83;4.90;;;9.90;99.90;;;;;;5055767;28;20813;-88
2022/12/24 06:22:31;;;;;;;72.90;6.20;;;10.00;99.90;;;;;;5056187;28;20426;-88
2022/12/24 06:24:57;;;;;;;71.20;6.53;;;9.90;99.90;;;;;;5054057;28;20168;-88
2022/12/24 06:27:22;;;;;;;74.07;6.60;;;10.00;99.90;;;;;;5055156;28;20252;-88
2022/12/24 06:29:49;;;;;;;74.67;5.67;;;10.00;99.90;;;;;;5054368;28;20624;-88
2022/12/24 06:32:15;;;;;;;78.63;6.00;;;10.00;99.90;;;;;;5054382;28;20221;-88
2022/12/24 06:34:40;;;;;;;83.87;7.43;;;10.00;99.90;;;;;;5055548;28;20218;-88
2022/12/24 06:37:06;;;;;;;77.60;6.07;;;10.10;99.90;;;;;;5054255;28;20183;-88
2022/12/24 06:39:32;;;;;;;78.30;7.13;;;10.20;99.90;;;;;;5055467;28;20168;-88
2022/12/24 06:41:57;;;;;;;74.37;5.57;;;10.20;99.90;;;;;;5055473;28;20678;-88
2022/12/24 06:44:23;;;;;;;78.20;6.27;;;10.20;99.90;;;;;;5053963;28;20172;-88
2022/12/24 06:46:49;;;;;;;73.20;5.60;;;10.20;99.90;;;;;;5053909;28;20521;-88
2022/12/24 06:49:14;;;;;;;79.30;6.53;;;10.20;99.90;;;;;;5054665;28;20263;-88
2022/12/24 06:51:40;;;;;;;78.67;5.30;;;10.20;99.90;;;;;;5054974;28;20177;-88
2022/12/24 06:54:06;;;;;;;79.33;6.20;;;10.20;99.90;;;;;;5054949;28;20766;-88
2022/12/24 06:56:31;;;;;;;77.57;5.60;;;10.20;99.90;;;;;;5053810;28;20195;-88
2022/12/24 06:58:57;;;;;;;76.70;5.30;;;10.20;99.90;;;;;;5053799;28;20175;-88
2022/12/24 07:01:23;;;;;;;84.73;7.37;;;10.20;99.90;;;;;;5053939;28;20268;-88
2022/12/24 07:03:49;;;;;;;78.60;5.60;;;10.20;99.90;;;;;;5054937;28;20651;-88
2022/12/24 07:06:20;;;;;;;79.53;6.05;;;10.20;99.90;;;;;;5053912;28;20200;-88
2022/12/24 07:08:45;;;;;;;79.63;6.00;;;10.10;99.90;;;;;;5053689;28;20289;-88
2022/12/24 07:11:11;;;;;;;86.93;6.93;;;10.10;99.90;;;;;;5054957;28;20185;-88
2022/12/24 07:13:37;;;;;;;89.07;7.20;;;10.10;99.90;;;;;;5053802;28;20214;-88
2022/12/24 07:16:04;;;;;;;74.47;5.73;;;10.10;99.90;;;;;;5053520;28;20648;-88
2022/12/24 07:18:30;;;;;;;85.75;6.10;;;10.10;99.90;;;;;;5054807;28;20252;-88
2022/12/24 07:20:57;;;;;;;85.90;6.13;;;10.00;99.90;;;;;;5054827;28;20272;-88
2022/12/24 07:23:22;;;;;;;84.15;7.55;;;10.10;99.90;;;;;;5054611;28;20171;-88
2022/12/24 07:25:48;;;;;;;81.23;6.30;;;10.00;99.90;;;;;;5053293;28;20695;-88
2022/12/24 07:28:16;;;;;;;81.67;5.97;;;10.00;99.90;;;;;;5053209;28;20172;-88
2022/12/24 07:30:42;;;;;;;81.07;6.07;;;10.00;99.90;;;;;;5052982;28;20533;-88
2022/12/24 07:33:08;;;;;;;71.07;4.87;;;10.00;99.90;;;;;;5053102;28;20195;-88
2022/12/24 07:35:37;;;;;;;80.70;7.00;;;10.00;99.90;;;;;;5053084;28;20169;-88
2022/12/24 07:38:05;;;;;;;79.30;6.82;;;10.00;99.90;;;;;;5054497;28;20144;-88
2022/12/24 07:40:33;;;;;;;72.05;6.30;;;9.90;99.90;;;;;;5055065;28;20191;-88
2022/12/24 07:42:59;;;;;;;78.53;6.78;;;10.00;99.90;;;;;;5054744;28;20167;-88
2022/12/24 07:45:24;;;;;;;75.00;6.20;;;10.00;99.90;;;;;;5053725;28;20534;-88
2022/12/24 07:47:53;;;;;;;79.83;6.00;;;10.00;99.90;;;;;;5053551;28;20235;-88
2022/12/24 07:50:19;;;;;;;74.70;6.53;;;10.10;99.90;;;;;;5052175;28;20187;-88
2022/12/24 07:52:45;;;;;;;79.07;7.60;;;10.20;99.90;;;;;;5053237;28;20188;-88
2022/12/24 07:55:10;;;;;;;89.10;8.20;;;10.20;99.90;;;;;;5054999;28;20161;-88
2022/12/24 07:57:36;;;;;;;97.77;7.70;;;10.30;99.90;;;;;;5053414;28;20706;-88
2022/12/24 08:00:09;;;;;;;83.73;7.63;;;10.20;99.90;;;;;;5054577;28;20168;-88
2022/12/24 08:02:35;;;;;;;80.10;6.55;;;10.20;99.90;;;;;;5054362;28;20188;-88
2022/12/24 08:05:01;;;;;;;81.22;6.30;;;10.20;99.90;;;;;;5053860;28;20221;-88
2022/12/24 08:07:26;;;;;;;80.63;6.30;;;10.30;99.90;;;;;;5053919;28;20568;-88
2022/12/24 08:09:52;;;;;;;78.23;6.80;;;10.30;99.90;;;;;;5052712;28;20256;-88
2022/12/24 08:12:18;;;;;;;83.90;6.17;;;10.30;99.90;;;;;;5053930;28;20196;-88
2022/12/24 08:14:43;;;;;;;77.63;6.00;;;10.40;99.90;;;;;;5054027;28;20291;-88
2022/12/24 08:17:09;;;;;;;80.10;6.40;;;10.40;99.90;;;;;;5053971;28;20165;-88
2022/12/24 08:19:35;;;;;;;80.13;6.80;;;10.40;99.90;;;;;;5052584;28;20161;-88
2022/12/24 08:22:00;;;;;;;77.90;5.83;;;10.50;99.90;;;;;;5053851;28;20263;-88
2022/12/24 08:24:26;;;;;;;80.43;6.63;;;10.60;99.90;;;;;;5054179;28;20616;-88
2022/12/24 08:26:52;;;;;;;82.33;7.77;;;10.60;99.90;;;;;;5052728;28;20536;-88
2022/12/24 08:29:17;;;;;;;85.93;6.80;;;10.70;99.90;;;;;;5052437;28;20165;-88
2022/12/24 08:31:43;;;;;;;77.97;7.73;;;10.70;99.90;;;;;;5053704;28;20176;-88
2022/12/24 08:34:10;;;;;;;77.07;8.37;;;10.70;99.90;;;;;;5052199;28;20646;-88
2022/12/24 08:36:36;;;;;;;85.70;7.80;;;10.90;99.90;;;;;;5052167;28;20322;-88
2022/12/24 08:39:02;;;;;;;85.60;6.93;;;10.90;99.90;;;;;;5053358;28;20636;-87
2022/12/24 08:41:31;;;;;;;78.68;8.57;;;10.90;99.90;;;;;;5051938;28;20192;-87
2022/12/24 08:44:02;;;;;;;86.53;8.70;;;11.00;99.90;;;;;;5052647;28;20227;-89
2022/12/24 08:46:28;;;;;;;81.22;8.70;;;11.00;99.90;;;;;;5053882;28;20149;-88
2022/12/24 08:48:54;;;;;;;88.10;7.77;;;11.00;99.90;;;;;;5051522;28;20540;-88
2022/12/24 08:51:28;;;;;;;79.60;7.73;;;11.00;99.90;;;;;;5051995;28;20188;-89
2022/12/24 08:53:57;;;;;;;81.82;7.18;;;10.90;99.90;;;;;;5051778;28;20189;-89
2022/12/24 08:56:22;;;;;;;81.97;8.98;;;10.90;99.90;;;;;;5051748;28;20316;-88
2022/12/24 08:58:48;;;;;;;79.47;7.63;;;10.90;99.90;;;;;;5053348;28;20243;-89
2022/12/24 09:01:19;;;;;;;81.23;9.83;;;10.90;99.90;;;;;;5053279;28;20184;-89
2022/12/24 09:03:44;;;;;;;73.72;6.90;;;10.90;99.90;;;;;;5051952;28;20438;-88
2022/12/24 09:06:15;;;;;;;76.73;7.23;;;10.90;99.90;;;;;;5051594;28;20200;-88
2022/12/24 09:08:47;;;;;;;83.18;6.70;;;10.90;99.90;;;;;;5052963;28;20153;-88
2022/12/24 09:11:16;;;;;;;79.63;6.25;;;10.90;99.90;;;;;;5052076;28;20188;-88
2022/12/24 09:13:44;;;;;;;77.78;6.72;;;10.90;99.90;;;;;;5051490;28;20188;-89
2022/12/24 09:16:10;;;;;;;75.47;6.88;;;10.90;99.90;;;;;;5051609;28;20315;-88
2022/12/24 09:18:36;;;;;;;82.13;7.28;;;10.90;99.90;;;;;;5051924;28;20184;-88
2022/12/24 09:21:04;;;;;;;83.60;6.67;;;10.90;99.90;;;;;;5053318;28;20184;-88
2022/12/24 09:23:33;;;;;;;84.00;7.13;;;10.90;99.90;;;;;;5053186;28;20169;-88
2022/12/24 09:25:59;;;;;;;79.13;7.40;;;10.90;99.90;;;;;;5053148;28;20160;-88
2022/12/24 09:28:24;;;;;;;78.43;6.10;;;10.90;99.90;;;;;;5053042;28;20171;-88
2022/12/24 09:31:01;;;;;;;95.57;8.33;;;10.90;99.90;;;;;;5053006;28;20555;-88
2022/12/24 09:33:30;;;;;;;75.13;8.57;;;10.90;99.90;;;;;;5052804;28;20468;-88
2022/12/24 09:35:56;;;;;;;82.93;8.40;;;10.90;99.90;;;;;;5051436;28;20595;-88
2022/12/24 09:38:22;;;;;;;85.60;8.00;;;10.90;99.90;;;;;;5053261;28;20164;-88
2022/12/24 09:40:49;;;;;;;88.43;8.32;;;11.00;99.90;;;;;;5051666;28;20207;-88
2022/12/24 09:43:16;;;;;;;79.07;7.82;;;11.00;99.90;;;;;;5051746;28;20172;-88
2022/12/24 09:46:19;;;;;;;78.80;8.52;;;11.00;99.90;;;;;;5051740;28;20172;-88
2022/12/24 09:48:50;;;;;;;76.15;9.80;;;11.00;99.90;;;;;;5052915;28;20235;-88
2022/12/24 09:51:33;;;;;;;82.75;9.05;;;11.00;99.90;;;;;;5051202;28;20195;-88
2022/12/24 09:54:06;;;;;;;83.35;8.00;;;11.00;99.90;;;;;;5052421;28;20186;-87
2022/12/24 09:56:40;;;;;;;80.18;8.55;;;11.10;99.90;;;;;;5051214;28;20160;-87
2022/12/24 09:59:17;;;;;;;84.32;7.40;;;11.10;99.90;;;;;;5052801;28;20541;-87
2022/12/24 10:01:43;;;;;;;78.97;7.57;;;11.10;99.90;;;;;;5054808;28;20183;-87
2022/12/24 10:04:14;;;;;;;90.23;8.13;;;11.20;99.90;;;;;;5055882;28;20160;-88
2022/12/24 10:07:15;;;;;;;80.22;7.65;;;11.20;99.90;;;;;;5056128;28;20632;-87
2022/12/24 10:09:53;;;;;;;82.97;9.07;;;11.20;99.90;;;;;;5056303;28;20163;-87
2022/12/24 10:12:45;;;;;;;77.10;9.55;;;11.20;99.90;;;;;;5054544;28;20214;-87
2022/12/24 10:15:17;;;;;;;83.47;10.63;;;11.20;99.90;;;;;;5055221;28;20165;-87
2022/12/24 10:18:24;;;;;;;88.45;10.48;;;11.20;99.90;;;;;;5056635;28;20199;-88
2022/12/24 10:21:14;;;;;;;83.00;10.60;;;11.20;99.90;;;;;;5054336;28;20180;-87
2022/12/24 10:24:03;;;;;;;83.70;11.35;;;11.30;99.90;;;;;;5055989;28;20163;-87
2022/12/24 10:26:38;;;;;;;88.30;13.77;;;11.40;99.90;;;;;;5054381;28;20200;-87
2022/12/24 10:29:18;;;;;;;82.25;11.60;;;11.40;99.90;;;;;;5054186;28;20175;-88
2022/12/24 10:32:08;;;;;;;79.25;12.85;;;11.40;99.90;;;;;;5055396;28;20180;-88
2022/12/24 10:34:48;;;;;;;92.35;16.92;;;11.50;99.90;;;;;;5055633;28;20153;-87
2022/12/24 10:37:21;;;;;;;88.68;13.25;;;11.50;99.90;;;;;;5055300;28;20544;-87
2022/12/24 10:39:47;;;;;;;100.10;15.63;;;11.50;99.90;;;;;;5054002;28;20194;-87
2022/12/24 10:42:15;;;;;;;88.70;15.23;;;11.60;99.90;;;;;;5053846;28;20279;-87
2022/12/24 10:44:49;;;;;;;80.13;15.68;;;11.60;99.90;;;;;;5053904;28;20192;-87
2022/12/24 10:47:18;;;;;;;85.75;14.40;;;11.60;99.90;;;;;;5053989;28;20207;-87
2022/12/24 10:50:01;;;;;;;87.35;11.20;;;11.60;99.90;;;;;;5053797;28;20161;-87
2022/12/24 10:52:38;;;;;;;81.78;9.68;;;11.70;99.90;;;;;;5055198;28;20196;-87
2022/12/24 10:55:26;;;;;;;90.80;9.32;;;11.60;99.90;;;;;;5054987;28;20144;-87
2022/12/24 10:58:04;;;;;;;88.07;8.13;;;11.60;99.90;;;;;;5053722;28;20172;-87
2022/12/24 11:00:31;;;;;;;82.70;8.20;;;11.70;99.90;;;;;;5053550;28;20168;-87
2022/12/24 11:03:07;;;;;;;82.18;8.02;;;11.70;99.90;;;;;;5053579;28;20160;-87
2022/12/24 11:05:35;;;;;;;78.70;9.77;;;11.70;99.90;;;;;;5054760;28;20164;-87
2022/12/24 11:08:03;;;;;;;86.13;8.52;;;11.60;99.90;;;;;;5054711;28;20173;-87
2022/12/24 11:10:30;;;;;;;76.57;7.90;;;11.60;99.90;;;;;;5053658;28;20171;-87
2022/12/24 11:13:04;;;;;;;87.97;7.93;;;11.60;99.90;;;;;;5053065;28;20215;-87
2022/12/24 11:15:35;;;;;;;81.35;7.90;;;11.60;99.90;;;;;;5053858;28;20243;-87
2022/12/24 11:18:15;;;;;;;88.35;7.70;;;11.70;99.90;;;;;;5054637;28;20229;-88
2022/12/24 11:20:47;;;;;;;86.10;9.32;;;11.70;99.90;;;;;;5053108;28;20724;-88
2022/12/24 11:23:15;;;;;;;89.18;9.48;;;11.90;99.90;;;;;;5053241;28;20195;-88
2022/12/24 11:25:47;;;;;;;83.82;9.18;;;11.90;99.90;;;;;;5053307;28;20177;-88
2022/12/24 11:28:21;;;;;;;84.38;10.88;;;11.80;99.90;;;;;;5054108;28;20226;-87
2022/12/24 11:30:59;;;;;;;84.55;11.52;;;11.90;99.90;;;;;;5053025;28;20192;-88
2022/12/24 11:33:46;;;;;;;86.68;10.05;;;11.80;99.90;;;;;;5054120;28;20602;-88
2022/12/24 11:36:12;;;;;;;83.07;9.65;;;11.80;99.90;;;;;;5054268;28;20172;-88
2022/12/24 11:38:39;;;;;;;82.63;10.95;;;11.80;99.90;;;;;;5054402;28;20631;-88
2022/12/24 11:41:10;;;;;;;91.13;11.63;;;11.80;99.90;;;;;;5054015;28;20188;-88
2022/12/24 11:44:07;;;;;;;87.35;10.93;;;11.80;99.90;;;;;;5053980;28;20168;-87
2022/12/24 11:46:45;;;;;;;87.72;10.18;;;11.80;99.90;;;;;;5048369;28;20187;-88
2022/12/24 11:49:36;;;;;;;85.95;11.60;;;11.80;99.90;;;;;;5054569;28;20259;-88
2022/12/24 11:52:10;;;;;;;80.30;10.77;;;11.90;99.90;;;;;;5053448;28;20196;-88
2022/12/24 11:55:02;;;;;;;81.32;12.40;;;11.90;99.90;;;;;;5053504;28;20164;-87
2022/12/24 11:57:46;;;;;;;81.55;10.40;;;12.00;99.90;;;;;;5052637;28;20161;-87
2022/12/24 12:00:18;;;;;;;84.65;11.40;;;12.00;99.90;;;;;;5052304;28;20202;-88
2022/12/24 12:02:51;;;;;;;90.03;10.18;;;12.00;99.90;;;;;;5052534;28;20180;-87
2022/12/24 12:05:30;;;;;;;82.68;9.93;;;12.00;99.90;;;;;;5053464;28;20267;-88
2022/12/24 12:08:13;;;;;;;80.35;9.65;;;11.90;99.90;;;;;;5052594;28;20247;-87
2022/12/24 12:10:47;;;;;;;86.47;9.93;;;11.90;99.90;;;;;;5053612;28;20192;-88
2022/12/24 12:13:26;;;;;;;88.50;11.77;;;11.90;99.90;;;;;;5052278;28;20262;-87
2022/12/24 12:16:20;;;;;;;74.57;10.98;;;11.90;99.90;;;;;;5053559;28;20164;-87
2022/12/24 12:18:53;;;;;;;85.28;11.48;;;11.90;99.90;;;;;;5053818;28;20539;-88
2022/12/24 12:21:41;;;;;;;86.28;11.90;;;11.90;99.90;;;;;;5052131;28;20184;-88
2022/12/24 12:24:15;;;;;;;88.60;12.60;;;12.00;99.90;;;;;;5052504;28;20153;-88
2022/12/24 12:26:43;;;;;;;78.72;11.13;;;12.00;99.90;;;;;;5052901;28;20171;-87
2022/12/24 12:29:23;;;;;;;82.22;9.80;;;12.00;99.90;;;;;;5053847;28;20165;-88
2022/12/24 12:31:56;;;;;;;88.70;11.40;;;12.00;99.90;;;;;;5051920;28;20199;-88
2022/12/24 12:34:44;;;;;;;94.30;11.98;;;12.00;99.90;;;;;;5051988;28;20533;-88
2022/12/24 12:37:35;;;;;;;86.32;11.70;;;12.10;99.90;;;;;;5053261;28;20199;-88
2022/12/24 12:40:15;;;;;;;79.18;10.20;;;12.20;99.90;;;;;;5052027;28;20161;-88
2022/12/24 12:43:14;;;;;;;81.72;10.13;;;12.20;99.90;;;;;;5052016;28;20164;-88
2022/12/24 12:46:01;;;;;;;77.50;9.63;;;12.20;99.90;;;;;;5029116;28;20168;-88
2022/12/24 12:48:44;;;;;;;81.95;8.40;;;12.20;99.90;;;;;;5051344;28;20521;-88
2022/12/24 12:51:35;;;;;;;84.95;9.93;;;12.30;99.90;;;;;;5051727;28;20668;-88
2022/12/24 12:54:48;;;;;;;85.72;10.90;;;12.30;99.90;;;;;;5052197;28;20715;-87
2022/12/24 12:57:27;;;;;;;81.65;10.88;;;12.30;99.90;;;;;;4983077;28;20174;-87